HLE09 EGBM-EGBM
Flight info
| Callsign | HLE09 |
|---|---|
| Flight time | 0h 56m |
| Altitude | 3000 |
| Route | VFR HEMS OPS |
| Aircraft | EC45/L-VGD/C |
Departure
| Time | 2026-05-04 19:55 |
|---|---|
| Airport | Tatenhill Airfield (EGBM) |
Arrival
| Time | 2026-05-04 20:51 |
|---|---|
| Airport | Tatenhill Airfield (EGBM) |
| Time | Latitude | Longitude | Altitude | Speed | Heading |
|---|---|---|---|---|---|
| 2026-05-04 19:37 | 52.81648 | -1.75842 | 438 ft | 0 kts | 9° |
| 2026-05-04 19:49 | 52.81654 | -1.75838 | 438 ft | 2 kts | 272° |
| 2026-05-04 19:49 | 52.81596 | -1.75875 | 498 ft | 26 kts | 177° |
| 2026-05-04 19:49 | 52.81275 | -1.75952 | 666 ft | 69 kts | 178° |
| 2026-05-04 19:49 | 52.80672 | -1.75995 | 736 ft | 98 kts | 176° |
| 2026-05-04 19:50 | 52.79954 | -1.76011 | 786 ft | 104 kts | 178° |
| 2026-05-04 19:50 | 52.79230 | -1.76036 | 910 ft | 105 kts | 179° |
| 2026-05-04 19:50 | 52.78492 | -1.76085 | 950 ft | 110 kts | 183° |
| 2026-05-04 19:50 | 52.77650 | -1.76193 | 996 ft | 124 kts | 182° |
| 2026-05-04 19:51 | 52.76816 | -1.76283 | 996 ft | 120 kts | 183° |
| 2026-05-04 19:51 | 52.75967 | -1.76379 | 998 ft | 124 kts | 183° |
| 2026-05-04 19:51 | 52.75102 | -1.76477 | 1005 ft | 125 kts | 183° |
| 2026-05-04 19:51 | 52.74223 | -1.76576 | 1005 ft | 127 kts | 182° |
| 2026-05-04 19:52 | 52.73336 | -1.76675 | 995 ft | 127 kts | 183° |
| 2026-05-04 19:52 | 52.72450 | -1.76772 | 995 ft | 127 kts | 183° |
| 2026-05-04 19:52 | 52.71580 | -1.76866 | 993 ft | 127 kts | 183° |
| 2026-05-04 19:52 | 52.70692 | -1.76962 | 992 ft | 128 kts | 183° |
| 2026-05-04 19:53 | 52.69808 | -1.77056 | 990 ft | 127 kts | 182° |
| 2026-05-04 19:53 | 52.68931 | -1.77149 | 999 ft | 125 kts | 183° |
| 2026-05-04 19:53 | 52.68064 | -1.77243 | 999 ft | 125 kts | 183° |
| 2026-05-04 19:53 | 52.67197 | -1.77337 | 1001 ft | 125 kts | 184° |
| 2026-05-04 19:54 | 52.66326 | -1.77433 | 1001 ft | 125 kts | 183° |
| 2026-05-04 19:54 | 52.65457 | -1.77529 | 1000 ft | 125 kts | 183° |
| 2026-05-04 19:54 | 52.64583 | -1.77626 | 1000 ft | 126 kts | 183° |
| 2026-05-04 19:54 | 52.63707 | -1.77722 | 1000 ft | 126 kts | 183° |
| 2026-05-04 19:55 | 52.62842 | -1.77816 | 1003 ft | 126 kts | 183° |
| 2026-05-04 19:55 | 52.61970 | -1.77916 | 1074 ft | 125 kts | 184° |
| 2026-05-04 19:55 | 52.61109 | -1.78016 | 1150 ft | 124 kts | 184° |
| 2026-05-04 19:55 | 52.60237 | -1.78116 | 1175 ft | 126 kts | 184° |
| 2026-05-04 19:56 | 52.59355 | -1.78215 | 1190 ft | 127 kts | 184° |
| 2026-05-04 19:56 | 52.58473 | -1.78334 | 1195 ft | 127 kts | 189° |
| 2026-05-04 19:56 | 52.57648 | -1.78831 | 1194 ft | 127 kts | 205° |
| 2026-05-04 19:56 | 52.56849 | -1.79474 | 1203 ft | 127 kts | 207° |
| 2026-05-04 19:57 | 52.56061 | -1.80126 | 1203 ft | 126 kts | 207° |
| 2026-05-04 19:57 | 52.55271 | -1.80781 | 1199 ft | 128 kts | 207° |
| 2026-05-04 19:57 | 52.54484 | -1.81433 | 1205 ft | 128 kts | 207° |
| 2026-05-04 19:57 | 52.53682 | -1.82031 | 1102 ft | 122 kts | 202° |
| 2026-05-04 19:58 | 52.53133 | -1.82758 | 1070 ft | 75 kts | 277° |
| 2026-05-04 19:58 | 52.53267 | -1.83239 | 1071 ft | 36 kts | 5° |
| 2026-05-04 19:58 | 52.53492 | -1.83080 | 901 ft | 47 kts | 64° |
| 2026-05-04 19:58 | 52.53409 | -1.82597 | 945 ft | 47 kts | 175° |
| 2026-05-04 19:59 | 52.53042 | -1.82793 | 864 ft | 55 kts | 257° |
| 2026-05-04 19:59 | 52.53121 | -1.83084 | 909 ft | 41 kts | 28° |
| 2026-05-04 19:59 | 52.53280 | -1.82886 | 663 ft | 14 kts | 34° |
| 2026-05-04 19:59 | 52.53339 | -1.82778 | 539 ft | 8 kts | 35° |
| 2026-05-04 20:00 | 52.53359 | -1.82738 | 453 ft | 2 kts | 43° |
| 2026-05-04 20:00 | 52.53360 | -1.82732 | 432 ft | 0 kts | 36° |
| 2026-05-04 20:20 | 52.53366 | -1.82723 | 473 ft | 0 kts | 34° |
| 2026-05-04 20:20 | 52.53361 | -1.82728 | 516 ft | 2 kts | 31° |
| 2026-05-04 20:20 | 52.53350 | -1.82747 | 595 ft | 1 kts | 31° |
| 2026-05-04 20:21 | 52.53421 | -1.82651 | 749 ft | 30 kts | 28° |
| 2026-05-04 20:21 | 52.53729 | -1.82731 | 1012 ft | 62 kts | 343° |
| 2026-05-04 20:21 | 52.54417 | -1.84444 | 1040 ft | 119 kts | 275° |
| 2026-05-04 20:22 | 52.54059 | -1.85543 | 1111 ft | 116 kts | 210° |
| 2026-05-04 20:22 | 52.53285 | -1.85922 | 1150 ft | 118 kts | 186° |
| 2026-05-04 20:22 | 52.52471 | -1.85835 | 1159 ft | 117 kts | 171° |
| 2026-05-04 20:22 | 52.51665 | -1.85957 | 1163 ft | 118 kts | 203° |
| 2026-05-04 20:23 | 52.50989 | -1.86698 | 1167 ft | 117 kts | 219° |
| 2026-05-04 20:23 | 52.50358 | -1.87564 | 1168 ft | 120 kts | 225° |
| 2026-05-04 20:23 | 52.49852 | -1.88640 | 1173 ft | 118 kts | 236° |
| 2026-05-04 20:23 | 52.49371 | -1.89734 | 1171 ft | 118 kts | 236° |
| 2026-05-04 20:24 | 52.48880 | -1.90823 | 1171 ft | 119 kts | 234° |
| 2026-05-04 20:24 | 52.48380 | -1.91893 | 1168 ft | 119 kts | 233° |
| 2026-05-04 20:24 | 52.47869 | -1.92951 | 1169 ft | 118 kts | 232° |
| 2026-05-04 20:24 | 52.47355 | -1.93977 | 1169 ft | 117 kts | 231° |
| 2026-05-04 20:25 | 52.46828 | -1.94992 | 1163 ft | 117 kts | 229° |
| 2026-05-04 20:25 | 52.46165 | -1.95793 | 1166 ft | 118 kts | 203° |
| 2026-05-04 20:25 | 52.45397 | -1.95776 | 1117 ft | 112 kts | 161° |
| 2026-05-04 20:25 | 52.44910 | -1.94934 | 1043 ft | 97 kts | 105° |
| 2026-05-04 20:26 | 52.44983 | -1.93975 | 1052 ft | 76 kts | 43° |
| 2026-05-04 20:26 | 52.45323 | -1.93954 | 961 ft | 34 kts | 264° |
| 2026-05-04 20:26 | 52.45297 | -1.94275 | 733 ft | 21 kts | 250° |
| 2026-05-04 20:26 | 52.45282 | -1.94434 | 604 ft | 8 kts | 251° |
| 2026-05-04 20:27 | 52.45277 | -1.94465 | 571 ft | 0 kts | 245° |
| 2026-05-04 20:32 | 52.45276 | -1.94465 | 571 ft | 1 kts | 253° |
| 2026-05-04 20:32 | 52.45275 | -1.94446 | 610 ft | 4 kts | 259° |
| 2026-05-04 20:32 | 52.45294 | -1.94373 | 699 ft | 8 kts | 259° |
| 2026-05-04 20:33 | 52.45304 | -1.94303 | 825 ft | 2 kts | 259° |
| 2026-05-04 20:33 | 52.45311 | -1.94527 | 902 ft | 38 kts | 257° |
| 2026-05-04 20:33 | 52.45267 | -1.95142 | 931 ft | 71 kts | 255° |
| 2026-05-04 20:33 | 52.45139 | -1.96122 | 895 ft | 105 kts | 254° |
| 2026-05-04 20:34 | 52.44964 | -1.97368 | 979 ft | 112 kts | 261° |
| 2026-05-04 20:34 | 52.45166 | -1.98556 | 1150 ft | 109 kts | 308° |
| 2026-05-04 20:34 | 52.45719 | -1.99373 | 1233 ft | 106 kts | 323° |
| 2026-05-04 20:34 | 52.46304 | -2.00101 | 1261 ft | 105 kts | 327° |
| 2026-05-04 20:35 | 52.46912 | -2.00762 | 1281 ft | 105 kts | 330° |
| 2026-05-04 20:35 | 52.47536 | -2.01353 | 1280 ft | 105 kts | 333° |
| 2026-05-04 20:35 | 52.48186 | -2.01889 | 1279 ft | 105 kts | 337° |
| 2026-05-04 20:35 | 52.48851 | -2.02379 | 1282 ft | 104 kts | 335° |
| 2026-05-04 20:36 | 52.49406 | -2.03161 | 1280 ft | 106 kts | 319° |
| 2026-05-04 20:36 | 52.50074 | -2.03643 | 1256 ft | 116 kts | 357° |
| 2026-05-04 20:36 | 52.50862 | -2.03295 | 1273 ft | 115 kts | 22° |
| 2026-05-04 20:36 | 52.51576 | -2.02690 | 1212 ft | 118 kts | 27° |
| 2026-05-04 20:37 | 52.52297 | -2.02044 | 1204 ft | 118 kts | 26° |
| 2026-05-04 20:37 | 52.53011 | -2.01403 | 1194 ft | 117 kts | 27° |
| 2026-05-04 20:37 | 52.53729 | -2.00757 | 1189 ft | 117 kts | 27° |
| 2026-05-04 20:37 | 52.54443 | -2.00116 | 1190 ft | 117 kts | 27° |
| 2026-05-04 20:38 | 52.55158 | -1.99474 | 1187 ft | 117 kts | 28° |
| 2026-05-04 20:38 | 52.55871 | -1.98831 | 1180 ft | 119 kts | 28° |
| 2026-05-04 20:38 | 52.56553 | -1.98227 | 1197 ft | 101 kts | 28° |
| 2026-05-04 20:38 | 52.57113 | -1.97741 | 1188 ft | 81 kts | 28° |
| 2026-05-04 20:39 | 52.57599 | -1.97314 | 1176 ft | 80 kts | 28° |
| 2026-05-04 20:39 | 52.58095 | -1.96875 | 1179 ft | 81 kts | 27° |
| 2026-05-04 20:39 | 52.58590 | -1.96437 | 1177 ft | 80 kts | 27° |
| 2026-05-04 20:39 | 52.59083 | -1.96000 | 1178 ft | 81 kts | 27° |
| 2026-05-04 20:40 | 52.59578 | -1.95563 | 1177 ft | 80 kts | 27° |
| 2026-05-04 20:40 | 52.60072 | -1.95126 | 1177 ft | 80 kts | 27° |
| 2026-05-04 20:40 | 52.60565 | -1.94689 | 1176 ft | 81 kts | 27° |
| 2026-05-04 20:40 | 52.61060 | -1.94251 | 1178 ft | 80 kts | 27° |
| 2026-05-04 20:41 | 52.61553 | -1.93815 | 1176 ft | 81 kts | 27° |
| 2026-05-04 20:41 | 52.62039 | -1.93384 | 1176 ft | 80 kts | 27° |
| 2026-05-04 20:41 | 52.62534 | -1.92946 | 1176 ft | 81 kts | 27° |
| 2026-05-04 20:41 | 52.63028 | -1.92509 | 1177 ft | 80 kts | 26° |
| 2026-05-04 20:42 | 52.63521 | -1.92070 | 1178 ft | 80 kts | 27° |
| 2026-05-04 20:42 | 52.64015 | -1.91633 | 1177 ft | 80 kts | 27° |
| 2026-05-04 20:42 | 52.64508 | -1.91196 | 1178 ft | 80 kts | 27° |
| 2026-05-04 20:42 | 52.65002 | -1.90763 | 1175 ft | 80 kts | 26° |
| 2026-05-04 20:43 | 52.65493 | -1.90344 | 1177 ft | 81 kts | 26° |
| 2026-05-04 20:43 | 52.65992 | -1.89919 | 1179 ft | 81 kts | 26° |
| 2026-05-04 20:43 | 52.66490 | -1.89496 | 1179 ft | 80 kts | 26° |
| 2026-05-04 20:43 | 52.66988 | -1.89071 | 1178 ft | 81 kts | 26° |
| 2026-05-04 20:44 | 52.67486 | -1.88648 | 1178 ft | 80 kts | 26° |
| 2026-05-04 20:44 | 52.67982 | -1.88226 | 1179 ft | 80 kts | 26° |
| 2026-05-04 20:44 | 52.68479 | -1.87798 | 1178 ft | 80 kts | 27° |
| 2026-05-04 20:44 | 52.68972 | -1.87360 | 1191 ft | 80 kts | 27° |
| 2026-05-04 20:45 | 52.69462 | -1.86924 | 1187 ft | 80 kts | 27° |
| 2026-05-04 20:45 | 52.69954 | -1.86486 | 1190 ft | 80 kts | 27° |
| 2026-05-04 20:45 | 52.70446 | -1.86049 | 1189 ft | 80 kts | 27° |
| 2026-05-04 20:45 | 52.70939 | -1.85609 | 1188 ft | 81 kts | 27° |
| 2026-05-04 20:46 | 52.71434 | -1.85169 | 1189 ft | 81 kts | 27° |
| 2026-05-04 20:46 | 52.71929 | -1.84727 | 1188 ft | 81 kts | 27° |
| 2026-05-04 20:46 | 52.72424 | -1.84287 | 1188 ft | 81 kts | 27° |
| 2026-05-04 20:46 | 52.72919 | -1.83846 | 1186 ft | 81 kts | 27° |
| 2026-05-04 20:47 | 52.73414 | -1.83407 | 1189 ft | 80 kts | 26° |
| 2026-05-04 20:47 | 52.73900 | -1.82975 | 1179 ft | 80 kts | 27° |
| 2026-05-04 20:47 | 52.74391 | -1.82539 | 1178 ft | 80 kts | 27° |
| 2026-05-04 20:47 | 52.74883 | -1.82101 | 1180 ft | 80 kts | 27° |
| 2026-05-04 20:48 | 52.75375 | -1.81663 | 1177 ft | 81 kts | 26° |
| 2026-05-04 20:48 | 52.75875 | -1.81217 | 1181 ft | 82 kts | 26° |
| 2026-05-04 20:48 | 52.76377 | -1.80770 | 1180 ft | 82 kts | 26° |
| 2026-05-04 20:48 | 52.76879 | -1.80322 | 1179 ft | 82 kts | 26° |
| 2026-05-04 20:49 | 52.77380 | -1.79876 | 1179 ft | 82 kts | 26° |
| 2026-05-04 20:49 | 52.77884 | -1.79427 | 1179 ft | 82 kts | 26° |
| 2026-05-04 20:49 | 52.78387 | -1.78978 | 1181 ft | 82 kts | 26° |
| 2026-05-04 20:49 | 52.78890 | -1.78530 | 1179 ft | 82 kts | 26° |
| 2026-05-04 20:50 | 52.79419 | -1.78201 | 1177 ft | 81 kts | 6° |
| 2026-05-04 20:50 | 52.79944 | -1.78443 | 1176 ft | 75 kts | 333° |
| 2026-05-04 20:50 | 52.80384 | -1.78804 | 1158 ft | 70 kts | 333° |
| 2026-05-04 20:50 | 52.80835 | -1.79090 | 1146 ft | 69 kts | 17° |
| 2026-05-04 20:51 | 52.81054 | -1.78471 | 984 ft | 65 kts | 83° |
| 2026-05-04 20:51 | 52.81169 | -1.77703 | 724 ft | 71 kts | 85° |
| 2026-05-04 20:51 | 52.81303 | -1.76911 | 543 ft | 69 kts | 81° |
| 2026-05-04 20:51 | 52.81433 | -1.76261 | 461 ft | 47 kts | 79° |
| 2026-05-04 20:52 | 52.81490 | -1.75986 | 462 ft | 11 kts | 23° |
| 2026-05-04 20:52 | 52.81565 | -1.75911 | 472 ft | 14 kts | 19° |
| 2026-05-04 20:52 | 52.81633 | -1.75844 | 458 ft | 5 kts | 4° |
| 2026-05-04 20:52 | 52.81648 | -1.75842 | 439 ft | 0 kts | 12° |
| 2026-05-04 20:53 | 52.81649 | -1.75842 | 439 ft | 0 kts | 12° |